Weather History for KPWC - February, 2013

Change the Weather History Date:

Sunday, February 17, 2013

  Actual Average Record
Temperature  
Mean Temperature 17 °F -  
Max Temperature 28 °F 26 °F 42 °F (2002)
Min Temperature 6 °F 7 °F -25 °F (2006)
Degree Days  
Heating Degree Days 48    
Moisture  
Dew Point 13 °F    
Average Humidity 76    
Maximum Humidity 92    
Minimum Humidity 64    
Precipitation  
Precipitation 0.00 in - - ()
Sea Level Pressure  
Sea Level Pressure 29.80 in    
Wind  
Wind Speed 10 mph (SSE)    
Max Wind Speed 20 mph    
Max Gust Speed 25 mph    
Visibility 10 miles    
Events      
Averages and records for this station are not official NWS values.
T = Trace of Precipitation, MM = Missing Value Source: NWS Daily Summary

Daily Weather History Graph

Daily Weather History Graph

Search for Another Location

Airport or City:

Trip Planner

Search our weather history database for the weather conditions in past years. The results will help you decide how hot, cold, wet, or windy it might be!

Date:

Astronomy

Feb. 17, 2013 Rise Set
Actual Time 7:17 AM CST 5:45 PM CST
Civil Twilight 6:46 AM CST 6:16 PM CST
Nautical Twilight 6:11 AM CST 6:52 PM CST
Astronomical Twilight 5:36 AM CST 7:27 PM CST
Moon 10:42 AM CST (2/17) 1:10 AM CST (2/17)
Length of Visible Light 11h 30m
Length of Day
10h 28m
Waxing Crescent, 49% of the Moon is Illuminated
Feb 17
Waxing Crescent
Feb 17
First Quarter
Feb 25
Full
Mar 4
Last Quarter
Mar 11
New

Hourly Weather History & Observations

Time (CST) Temp. Windchill Dew Point Humidity Pressure Visibility Wind Dir Wind Speed Gust Speed Precip Events Conditions
12:12 AM 8.6 °F 0.1 °F 1.4 °F 73% 30.04 in 10.0 mi SSE 4.6 mph - N/A   Mostly Cloudy
12:32 AM 6.8 °F -3.5 °F 1.4 °F 79% 30.04 in 10.0 mi SSE 5.8 mph - N/A   Overcast
12:52 AM 8.6 °F -2.6 °F 1.4 °F 73% 30.04 in 10.0 mi SSE 6.9 mph - N/A   Overcast
1:12 AM 8.6 °F -2.6 °F 3.2 °F 79% 30.03 in 10.0 mi SSE 6.9 mph - N/A   Overcast
1:33 AM 8.6 °F -1.3 °F 3.2 °F 79% 30.03 in 10.0 mi SSE 5.8 mph - N/A   Overcast
1:53 AM 8.6 °F -2.6 °F 3.2 °F 79% 30.03 in 10.0 mi South 6.9 mph - N/A   Overcast
2:12 AM 8.6 °F -3.7 °F 3.2 °F 79% 30.03 in 10.0 mi SSE 8.1 mph - N/A   Overcast
2:32 AM 8.6 °F -3.7 °F 3.2 °F 79% 30.02 in 10.0 mi SSE 8.1 mph - N/A   Overcast
2:52 AM 8.6 °F -3.7 °F 3.2 °F 79% 30.01 in 10.0 mi SSE 8.1 mph - N/A   Overcast
3:13 AM 10.4 °F -2.4 °F 3.2 °F 73% 30.00 in 10.0 mi SSE 9.2 mph - N/A   Overcast
3:32 AM 10.4 °F -4.1 °F 3.2 °F 73% 29.99 in 10.0 mi SSE 11.5 mph - N/A   Overcast
3:53 AM 10.4 °F -3.3 °F 3.2 °F 73% 29.98 in 10.0 mi SSE 10.4 mph - N/A   Overcast
4:12 AM 10.4 °F -0.4 °F 3.2 °F 73% 29.98 in 10.0 mi South 6.9 mph - N/A   Overcast
4:33 AM 10.4 °F -1.5 °F 3.2 °F 73% 29.97 in 10.0 mi SSE 8.1 mph - N/A   Overcast
4:53 AM 10.4 °F -2.4 °F 3.2 °F 73% 29.96 in 10.0 mi SSE 9.2 mph - N/A   Mostly Cloudy
5:13 AM 10.4 °F -1.5 °F 3.2 °F 73% 29.95 in 10.0 mi SSE 8.1 mph - N/A   Overcast
5:51 AM 10.4 °F -5.4 °F 5.0 °F 79% 29.93 in 10.0 mi SSE 13.8 mph - N/A   Mostly Cloudy
6:13 AM 10.4 °F -4.1 °F 5.0 °F 79% 29.94 in 10.0 mi South 11.5 mph - N/A   Overcast
6:32 AM 10.4 °F -2.4 °F 6.8 °F 85% 29.93 in 10.0 mi SSE 9.2 mph - N/A   Overcast
6:53 AM 10.4 °F -3.3 °F 6.8 °F 85% 29.91 in 10.0 mi SSE 10.4 mph - N/A   Overcast
7:13 AM 10.4 °F -3.3 °F 6.8 °F 85% 29.91 in 10.0 mi SSE 10.4 mph - N/A   Overcast
7:33 AM 12.2 °F -0.2 °F 8.6 °F 85% 29.91 in 10.0 mi SSE 9.2 mph - N/A   Overcast
7:52 AM 12.2 °F -1.8 °F 8.6 °F 85% 29.90 in 10.0 mi South 11.5 mph 16.1 mph N/A   Overcast
8:13 AM 12.2 °F -1.0 °F 8.6 °F 85% 29.89 in 10.0 mi SSE 10.4 mph 17.3 mph N/A   Overcast
8:32 AM 12.2 °F -1.0 °F 8.6 °F 85% 29.88 in 10.0 mi SSE 10.4 mph - N/A   Overcast
8:53 AM 12.2 °F -0.2 °F 10.4 °F 92% 29.87 in 10.0 mi SSE 9.2 mph - N/A   Overcast
9:13 AM 14.0 °F 0.5 °F 10.4 °F 86% 29.86 in 10.0 mi SSE 11.5 mph - N/A   Overcast
9:33 AM 15.8 °F 2.7 °F 10.4 °F 79% 29.86 in 10.0 mi SSE 11.5 mph - N/A   Overcast
9:53 AM 15.8 °F 2.1 °F 12.2 °F 86% 29.86 in 10.0 mi SSE 12.7 mph - N/A   Overcast
10:13 AM 15.8 °F 1.4 °F 12.2 °F 86% 29.85 in 10.0 mi SSE 13.8 mph 17.3 mph N/A   Overcast
10:32 AM 17.6 °F 5.0 °F 12.2 °F 79% 29.84 in 10.0 mi SSE 11.5 mph - N/A   Overcast
10:53 AM 17.6 °F 5.0 °F 12.2 °F 79% 29.83 in 10.0 mi SSE 11.5 mph 18.4 mph N/A   Overcast
11:13 AM 19.4 °F 8.6 °F 14.0 °F 80% 29.82 in 10.0 mi SSE 9.2 mph - N/A   Mostly Cloudy
11:33 AM 19.4 °F 6.6 °F 15.8 °F 86% 29.82 in 10.0 mi SSE 12.7 mph - N/A   Scattered Clouds
11:53 AM 21.2 °F 8.3 °F 15.8 °F 80% 29.81 in 10.0 mi SSE 13.8 mph 18.4 mph N/A   Mostly Cloudy
12:13 PM 23.0 °F 10.6 °F 15.8 °F 74% 29.79 in 10.0 mi SSE 13.8 mph - N/A   Mostly Cloudy
12:32 PM 24.8 °F 12.9 °F 15.8 °F 69% 29.78 in 10.0 mi SSE 13.8 mph 17.3 mph N/A   Mostly Cloudy
12:53 PM 24.8 °F 13.4 °F 15.8 °F 69% 29.77 in 10.0 mi SSE 12.7 mph - N/A   Scattered Clouds
1:13 PM 26.6 °F 13.8 °F 15.8 °F 64% 29.76 in 10.0 mi South 17.3 mph 23.0 mph N/A   Clear
1:33 PM 26.6 °F 13.1 °F 15.8 °F 64% 29.75 in 10.0 mi South 19.6 mph 25.3 mph N/A   Mostly Cloudy
1:53 PM 26.6 °F 13.1 °F 15.8 °F 64% 29.74 in 10.0 mi South 19.6 mph 25.3 mph N/A   Scattered Clouds
2:13 PM 26.6 °F 14.7 °F 17.6 °F 69% 29.72 in 10.0 mi SSE 15.0 mph 19.6 mph N/A   Scattered Clouds
2:32 PM 26.6 °F 13.8 °F 17.6 °F 69% 29.71 in 10.0 mi South 17.3 mph - N/A   Scattered Clouds
2:53 PM 26.6 °F 14.7 °F 17.6 °F 69% 29.70 in 10.0 mi SSE 15.0 mph 24.2 mph N/A   Scattered Clouds
3:12 PM 26.6 °F 15.2 °F 17.6 °F 69% 29.70 in 10.0 mi SSE 13.8 mph 21.9 mph N/A   Clear
3:32 PM 26.6 °F 13.8 °F 17.6 °F 69% 29.70 in 10.0 mi SSE 17.3 mph 21.9 mph N/A   Scattered Clouds
3:53 PM 26.6 °F 14.3 °F 17.6 °F 69% 29.69 in 10.0 mi SSE 16.1 mph 23.0 mph N/A   Scattered Clouds
4:13 PM 26.6 °F 16.2 °F 17.6 °F 69% 29.69 in 10.0 mi SSE 11.5 mph 18.4 mph N/A   Scattered Clouds
4:32 PM 26.6 °F 15.2 °F 17.6 °F 69% 29.68 in 10.0 mi SSE 13.8 mph - N/A   Scattered Clouds
4:52 PM 28.4 °F 16.2 °F 19.4 °F 69% 29.67 in 10.0 mi SSE 17.3 mph 21.9 mph N/A   Scattered Clouds
5:13 PM 26.6 °F 14.3 °F 19.4 °F 74% 29.66 in 10.0 mi SSE 16.1 mph - N/A   Scattered Clouds
5:32 PM 28.4 °F 16.2 °F 19.4 °F 69% 29.66 in 10.0 mi SSE 17.3 mph 23.0 mph N/A   Scattered Clouds
5:53 PM 28.4 °F 15.4 °F 19.4 °F 69% 29.66 in 10.0 mi SSE 19.6 mph 24.2 mph N/A   Overcast
6:12 PM 28.4 °F 17.5 °F 19.4 °F 69% 29.66 in 10.0 mi SSE 13.8 mph - N/A   Overcast
6:33 PM 26.6 °F 15.2 °F 19.4 °F 74% 29.66 in 10.0 mi SSE 13.8 mph - N/A   Mostly Cloudy
6:52 PM 26.6 °F 15.2 °F 19.4 °F 74% 29.67 in 10.0 mi SSE 13.8 mph 18.4 mph N/A   Mostly Cloudy
7:13 PM 26.6 °F 14.3 °F 19.4 °F 74% 29.66 in 10.0 mi South 16.1 mph - N/A   Mostly Cloudy
7:32 PM 26.6 °F 14.7 °F 19.4 °F 74% 29.65 in 10.0 mi SSE 15.0 mph - N/A   Mostly Cloudy
7:53 PM 26.6 °F 15.2 °F 19.4 °F 74% 29.64 in 10.0 mi SSE 13.8 mph 17.3 mph N/A   Scattered Clouds
8:13 PM 26.6 °F 16.8 °F 19.4 °F 74% 29.64 in 10.0 mi SSE 10.4 mph - N/A   Clear
8:32 PM 24.8 °F 14.6 °F 19.4 °F 80% 29.64 in 10.0 mi SSE 10.4 mph - N/A   Clear
8:53 PM 24.8 °F 14.6 °F 19.4 °F 80% 29.65 in 10.0 mi SSE 10.4 mph - N/A   Mostly Cloudy
9:12 PM 26.6 °F 16.8 °F 19.4 °F 74% 29.64 in 10.0 mi SSE 10.4 mph 16.1 mph N/A   Overcast
9:33 PM 26.6 °F 15.7 °F 19.4 °F 74% 29.64 in 10.0 mi SSE 12.7 mph - N/A   Overcast
9:52 PM 26.6 °F 15.2 °F 19.4 °F 74% 29.63 in 10.0 mi SSE 13.8 mph 17.3 mph N/A   Overcast
10:12 PM 26.6 °F 16.8 °F 19.4 °F 74% 29.62 in 10.0 mi SSE 10.4 mph - N/A   Mostly Cloudy
10:32 PM 26.6 °F 16.2 °F 19.4 °F 74% 29.62 in 10.0 mi SSE 11.5 mph - N/A   Unknown
10:52 PM 24.8 °F 14.0 °F 19.4 °F 80% 29.61 in 10.0 mi SSE 11.5 mph - N/A   Scattered Clouds
11:13 PM 24.8 °F 14.6 °F 19.4 °F 80% 29.60 in 10.0 mi SSE 10.4 mph - N/A   Clear
11:32 PM 24.8 °F 14.0 °F 19.4 °F 80% 29.59 in 10.0 mi SSE 11.5 mph - N/A   Clear
11:53 PM 24.8 °F 15.3 °F 19.4 °F 80% 29.58 in 10.0 mi SSE 9.2 mph - N/A   Clear